Rosalba — MCUP7 — position and weather

sailwx.info

Track history (hours):
 
Tides and Currents Weather Stations Pressure Air Temp Water Temp Dewpoint Dewpoint Depression Visibility Wind Speed Wind Dir Waves Ship Positions

Rosalba

Last reported at 2017-Oct-06 23:43 UTC. Time now 2017-Dec-12 02:52 UTC.
Position N 39°19' W 010°35'.
Warning: this ship's position is months out of date.

Length 20 m.

Type: Sailing vessel. MMSI: 235006800.

Date/timePositionNaut miles runAvg speedWind from/ knotsBaromVisibWave heightAir tempDewpointWater temp
2017-Oct-06 23:43N 39°19' W 010°35'2 7.9
2017-Oct-06 23:30N 39°17' W 010°33'13 8.2
2017-Oct-06 21:54N 39°07' W 010°22'3 7.5
2017-Oct-06 21:28N 39°05' W 010°20'45 9.1
2017-Oct-06 16:30N 38°41' W 009°30'3 5.3
2017-Oct-06 15:59N 38°41' W 009°26'1 1.6
2017-Oct-06 15:07N 38°42' W 009°25'0 0.0
2017-Oct-06 14:31N 38°42' W 009°25'0 0.0
2017-Oct-06 14:04N 38°42' W 009°25'0 0.0
2017-Oct-06 12:58N 38°42' W 009°25'0 0.0
2017-Oct-06 10:19N 38°42' W 009°25'0 0.0
2017-Oct-06 09:43N 38°42' W 009°25'0 0.0
2017-Oct-06 09:25N 38°42' W 009°25'0 0.0
2017-Oct-06 08:55N 38°42' W 009°25'0 0.0
2017-Oct-06 08:24N 38°42' W 009°25'  
Track history (hours):
 
Tides and Currents Weather Stations Pressure Air Temp Water Temp Dewpoint Dewpoint Depression Visibility Wind Speed Wind Dir Waves Ship Positions

Rosalba

Last reported at 2017-Oct-06 23:43 UTC. Time now 2017-Dec-12 02:52 UTC.
Position N 39°19' W 010°35'.
Warning: this ship's position is months out of date.

Length 20 m.

Type: Sailing vessel. MMSI: 235006800.

Date/timePositionNaut miles runAvg speedWind from/ knotsBaromVisibWave heightAir tempDewpointWater temp
2017-Oct-06 23:43N 39°19' W 010°35'2 7.9
2017-Oct-06 23:30N 39°17' W 010°33'13 8.2
2017-Oct-06 21:54N 39°07' W 010°22'3 7.5
2017-Oct-06 21:28N 39°05' W 010°20'45 9.1
2017-Oct-06 16:30N 38°41' W 009°30'3 5.3
2017-Oct-06 15:59N 38°41' W 009°26'1 1.6
2017-Oct-06 15:07N 38°42' W 009°25'0 0.0
2017-Oct-06 14:31N 38°42' W 009°25'0 0.0
2017-Oct-06 14:04N 38°42' W 009°25'0 0.0
2017-Oct-06 12:58N 38°42' W 009°25'0 0.0
2017-Oct-06 10:19N 38°42' W 009°25'0 0.0
2017-Oct-06 09:43N 38°42' W 009°25'0 0.0
2017-Oct-06 09:25N 38°42' W 009°25'0 0.0
2017-Oct-06 08:55N 38°42' W 009°25'0 0.0
2017-Oct-06 08:24N 38°42' W 009°25'  

Dump ship's entire track history